Aérodrome :
LOGIN :

S'inscrire | Disclaimer

   EN    FR    IT 

 










Légende :    VFR   VFR Marginal   IFR   IFR Intensif   IFR Très Intensif
Visi : 
Plafond : 
>= 8 km
>= 3000ft
5 à 8 km
1000 à 3000 ft
1500m à 5 km
500 à 1000 ft
800 à 1500m
200 à 500 ft
< 800m
< 200 ft
Symboles :   Orages  Brouillard  Fortes neiges  Fortes précipitations  Vent > 20 kt
SIGMETs :   Divers  Orages  Givrage  Turbulence  Onde Orograph.  Cendres Volcan.







- Altitude de l'aérodrome : 699 ft
- Code IATA : PAD


EDLP - Paderborn Lippstadt

DERNIER METAR :
  • 140750Z 25019G30KT 7000 RA SCT008 BKN012 02/01 Q0990

METARs EXPIRÉS :
  • 140720Z 24017G30KT 220V280 9000 -RA SCT009 BKN014 02/00 Q0989
  • 140650Z 24012KT 210V270 9000 -RA SCT009 BKN017 02/00 Q0989
  • 140620Z 25012KT 7000 -SNRA BKN007 01/00 Q0988
  • 140550Z 21007KT 5000 -SNRA BKN010 01/00 Q0988
  • 140520Z 23013KT 3500 -SNRA BKN008 01/00 Q0988

TAF TAF EDLP
Valide du 14 à 06h jusqu'au 15 à 06h UTC


140500Z 1406/1506 23015G25KT 9999 BKN030
TEMPO 1406/1414 25020G35KT
PROB40
TEMPO 1406/1410 3000 SHSNRA BKN011CB
BECMG 1414/1417 21011KT
BECMG 1423/1501 18006KT
TEMPO 1502/1506 25011KT 2500 SHSNRA BKN012TCU
Pas de NOTAMs connus pour ce terrain.



MET'MAP, la Météo Aéronautique d'un coup d'oeil ! - Copyright ORBIFLY Décembre 2007 - Disclaimer

ORBIFLY MET'MAP TEAM :

Programmation & Développement : Alexandra Zaïnal
Conception & Développement : Baudouin d'Aumeries
Co-Programmation & Développement : Marc-Olivier Méhu
Soutien technique & logistique : Manuel Goepfert

Contact : metmap@orbifly.com




SOURCES & CREDITS :

   NOAA